Time;durP1;ratioP1;P1;durP2;ratioP2;P2;SDS_P1;SDS_P2;PMS_P1;PMS_P2;Temp;Humidity;BMP_temperature;BMP_pressure;BME280_temperature;BME280_humidity;BME280_pressure;Samples;Min_cycle;Max_cycle;Signal;HPM_P1;HPM_P2
2023/09/17 00:01:07;;;;;;;8.15;7.43;;;;;;;;;;10312898;28;20364;-77
2023/09/17 00:06:08;;;;;;;7.65;6.95;;;;;;;;;;10305189;28;20228;-78
2023/09/17 00:11:09;;;;;;;8.70;7.80;;;;;;;;;;10306746;28;20357;-77
2023/09/17 00:16:10;;;;;;;9.15;7.97;;;;;;;;;;10300995;28;20693;-77
2023/09/17 00:21:11;;;;;;;8.75;7.95;;;;;;;;;;10321036;28;20752;-77
2023/09/17 00:26:12;;;;;;;8.32;7.63;;;;;;;;;;10313235;28;20239;-77
2023/09/17 00:31:17;;;;;;;7.93;7.13;;;;;;;;;;10322779;28;20216;-77
2023/09/17 00:36:19;;;;;;;8.63;7.90;;;;;;;;;;10282801;28;20212;-77
2023/09/17 00:41:20;;;;;;;10.15;8.75;;;;;;;;;;10301015;28;20208;-78
2023/09/17 00:46:21;;;;;;;8.40;7.60;;;;;;;;;;10291955;28;20744;-77
2023/09/17 00:51:22;;;;;;;8.60;7.95;;;;;;;;;;10307360;28;20216;-78
2023/09/17 00:56:23;;;;;;;8.07;7.35;;;;;;;;;;10310194;28;20216;-77
2023/09/17 01:01:25;;;;;;;8.88;7.35;;;;;;;;;;10330117;28;20216;-77
2023/09/17 01:06:28;;;;;;;7.97;7.13;;;;;;;;;;10312176;28;20320;-76
2023/09/17 01:11:29;;;;;;;8.30;7.70;;;;;;;;;;10256651;28;20281;-76
2023/09/17 01:16:30;;;;;;;8.32;7.63;;;;;;;;;;10256629;28;20240;-78
2023/09/17 01:22:01;;;;;;;8.85;8.02;;;;;;;;;;10258957;28;20221;-77
2023/09/17 01:27:03;;;;;;;8.48;7.78;;;;;;;;;;10256692;28;20225;-77
2023/09/17 01:32:04;;;;;;;8.35;7.55;;;;;;;;;;10254811;28;20301;-77
2023/09/17 01:37:08;;;;;;;9.38;8.38;;;;;;;;;;10242708;28;20213;-77
2023/09/17 01:42:09;;;;;;;8.48;7.72;;;;;;;;;;10273179;28;20205;-77
2023/09/17 01:47:11;;;;;;;9.00;8.10;;;;;;;;;;10259331;28;20247;-77
2023/09/17 01:52:12;;;;;;;9.18;8.25;;;;;;;;;;10235926;28;20236;-77
2023/09/17 01:57:13;;;;;;;9.23;8.30;;;;;;;;;;10241224;28;20228;-77
2023/09/17 02:02:14;;;;;;;7.88;6.72;;;;;;;;;;10253476;28;20213;-76
2023/09/17 02:07:16;;;;;;;9.38;8.00;;;;;;;;;;10290383;28;20229;-77
2023/09/17 02:12:18;;;;;;;9.00;7.65;;;;;;;;;;10285570;28;20212;-77
2023/09/17 02:17:19;;;;;;;9.30;8.48;;;;;;;;;;10298389;28;20220;-78
2023/09/17 02:22:20;;;;;;;8.20;7.35;;;;;;;;;;10271798;28;20216;-76
2023/09/17 02:27:21;;;;;;;9.20;6.93;;;;;;;;;;10283886;28;20259;-78
2023/09/17 02:32:22;;;;;;;7.22;6.63;;;;;;;;;;10312059;28;20212;-77
2023/09/17 02:37:24;;;;;;;8.15;7.45;;;;;;;;;;10285863;28;20822;-77
2023/09/17 02:42:25;;;;;;;7.72;6.93;;;;;;;;;;10328402;28;20228;-77
2023/09/17 02:47:26;;;;;;;7.10;6.50;;;;;;;;;;10286121;28;20220;-77
2023/09/17 02:52:27;;;;;;;7.22;6.57;;;;;;;;;;10304953;28;20801;-78
2023/09/17 02:57:28;;;;;;;9.25;8.07;;;;;;;;;;10324744;28;20853;-78
2023/09/17 03:02:29;;;;;;;8.48;7.68;;;;;;;;;;10298214;28;20225;-77
2023/09/17 03:07:30;;;;;;;8.25;7.45;;;;;;;;;;10306503;28;20296;-76
2023/09/17 03:12:32;;;;;;;7.35;6.68;;;;;;;;;;10301115;28;20212;-77
2023/09/17 03:17:37;;;;;;;8.35;7.55;;;;;;;;;;10305187;28;20711;-77
2023/09/17 03:22:38;;;;;;;11.15;7.45;;;;;;;;;;10314971;28;20574;-77
2023/09/17 03:27:43;;;;;;;7.75;7.10;;;;;;;;;;10287852;28;20365;-77
2023/09/17 03:32:44;;;;;;;7.80;7.10;;;;;;;;;;10302887;28;20608;-75
2023/09/17 03:37:46;;;;;;;8.07;7.28;;;;;;;;;;10292380;28;20216;-76
2023/09/17 03:42:48;;;;;;;7.10;6.55;;;;;;;;;;10288500;28;20222;-77
2023/09/17 03:47:49;;;;;;;7.35;6.75;;;;;;;;;;10295006;28;20228;-77
2023/09/17 03:52:52;;;;;;;7.05;6.60;;;;;;;;;;10293601;28;20671;-77
2023/09/17 03:57:54;;;;;;;7.82;7.13;;;;;;;;;;10305302;28;20221;-77
2023/09/17 04:02:57;;;;;;;8.05;7.35;;;;;;;;;;10270507;28;20217;-78
2023/09/17 04:07:58;;;;;;;8.98;7.55;;;;;;;;;;10295651;28;20221;-77
2023/09/17 04:12:59;;;;;;;8.25;7.47;;;;;;;;;;10288664;28;20212;-77
2023/09/17 04:18:00;;;;;;;8.73;7.82;;;;;;;;;;10286873;28;20768;-79
2023/09/17 04:23:03;;;;;;;7.60;6.95;;;;;;;;;;10277023;28;20208;-78
2023/09/17 04:28:05;;;;;;;9.57;8.68;;;;;;;;;;10284585;28;20224;-78
2023/09/17 04:33:06;;;;;;;10.05;8.93;;;;;;;;;;10283028;28;20303;-78
2023/09/17 04:38:09;;;;;;;11.10;9.38;;;;;;;;;;10284935;28;20224;-78
2023/09/17 04:43:11;;;;;;;9.27;8.25;;;;;;;;;;10276834;28;20217;-78
2023/09/17 04:48:13;;;;;;;9.60;8.73;;;;;;;;;;10273233;28;20220;-78
2023/09/17 04:53:15;;;;;;;10.70;9.60;;;;;;;;;;10283164;28;20221;-78
2023/09/17 04:58:18;;;;;;;14.07;9.93;;;;;;;;;;10300482;28;20213;-79
2023/09/17 05:03:21;;;;;;;10.40;9.38;;;;;;;;;;10283832;28;20580;-79
2023/09/17 05:08:22;;;;;;;10.95;9.88;;;;;;;;;;10319572;28;20232;-79
2023/09/17 05:13:24;;;;;;;10.25;9.15;;;;;;;;;;10300480;28;20231;-78
2023/09/17 05:18:26;;;;;;;10.95;9.85;;;;;;;;;;10302954;28;20256;-79
2023/09/17 05:23:27;;;;;;;11.98;10.45;;;;;;;;;;10310585;28;20756;-78
2023/09/17 05:28:33;;;;;;;12.25;10.25;;;;;;;;;;10303717;28;20728;-78
2023/09/17 05:33:35;;;;;;;12.55;11.13;;;;;;;;;;10297649;28;20710;-79
2023/09/17 05:38:37;;;;;;;13.73;12.25;;;;;;;;;;10292476;28;20212;-78
2023/09/17 05:43:40;;;;;;;17.20;12.43;;;;;;;;;;10290452;28;20216;-78
2023/09/17 05:48:42;;;;;;;15.30;12.52;;;;;;;;;;10281404;28;22152;-78
2023/09/17 05:53:43;;;;;;;15.23;12.57;;;;;;;;;;10286826;28;20217;-77
2023/09/17 05:58:44;;;;;;;16.42;13.63;;;;;;;;;;10258810;28;20213;-78
2023/09/17 06:03:46;;;;;;;16.35;12.70;;;;;;;;;;10296932;28;20217;-77
2023/09/17 06:08:50;;;;;;;16.27;13.68;;;;;;;;;;10297702;28;20905;-79
2023/09/17 06:13:52;;;;;;;18.67;12.45;;;;;;;;;;10280265;28;20290;-77
2023/09/17 06:18:54;;;;;;;14.35;12.32;;;;;;;;;;10291262;28;20211;-77
2023/09/17 06:23:57;;;;;;;12.63;11.25;;;;;;;;;;10308739;28;20399;-77
2023/09/17 06:28:58;;;;;;;17.40;12.98;;;;;;;;;;10305837;28;20310;-77
2023/09/17 06:34:00;;;;;;;12.73;10.68;;;;;;;;;;10304762;28;20220;-76
2023/09/17 06:39:01;;;;;;;15.75;11.98;;;;;;;;;;10273866;28;20311;-77
2023/09/17 06:44:02;;;;;;;12.70;11.43;;;;;;;;;;10299973;28;20255;-77
2023/09/17 06:49:03;;;;;;;15.93;11.18;;;;;;;;;;10287552;28;20221;-77
2023/09/17 06:54:05;;;;;;;12.93;11.38;;;;;;;;;;10289182;28;20243;-77
2023/09/17 06:59:06;;;;;;;13.73;10.95;;;;;;;;;;10291872;28;20228;-77
2023/09/17 07:04:07;;;;;;;11.63;10.52;;;;;;;;;;10295516;28;20745;-78
2023/09/17 07:09:08;;;;;;;11.57;10.30;;;;;;;;;;10301884;28;20249;-78
2023/09/17 07:14:09;;;;;;;10.85;9.85;;;;;;;;;;10310328;28;20208;-78
2023/09/17 07:19:10;;;;;;;11.55;9.90;;;;;;;;;;10296688;28;20733;-78
2023/09/17 07:24:11;;;;;;;11.52;10.43;;;;;;;;;;10310193;28;20252;-78
2023/09/17 07:29:13;;;;;;;10.60;9.65;;;;;;;;;;10303647;28;20291;-79
2023/09/17 07:34:14;;;;;;;10.77;9.90;;;;;;;;;;10296515;28;20224;-79
2023/09/17 07:39:15;;;;;;;10.13;9.23;;;;;;;;;;10316927;28;20275;-79
2023/09/17 07:44:17;;;;;;;11.02;9.35;;;;;;;;;;10335826;28;20569;-78
2023/09/17 07:49:18;;;;;;;10.77;9.75;;;;;;;;;;10310611;28;20274;-78
2023/09/17 07:54:19;;;;;;;11.73;10.15;;;;;;;;;;10302558;28;20289;-80
2023/09/17 07:59:20;;;;;;;10.90;9.88;;;;;;;;;;10326285;28;20245;-79
2023/09/17 08:04:21;;;;;;;10.88;9.88;;;;;;;;;;10309261;28;20224;-79
2023/09/17 08:09:22;;;;;;;10.63;9.55;;;;;;;;;;10301545;28;20311;-79
2023/09/17 08:14:25;;;;;;;10.73;9.65;;;;;;;;;;10301906;28;20263;-77
2023/09/17 08:19:26;;;;;;;9.93;8.98;;;;;;;;;;10300638;28;21404;-77
2023/09/17 08:24:27;;;;;;;11.10;8.95;;;;;;;;;;10301929;28;20706;-78
2023/09/17 08:29:29;;;;;;;9.80;8.80;;;;;;;;;;10316630;28;20581;-77
2023/09/17 08:34:30;;;;;;;9.73;8.45;;;;;;;;;;10310870;28;20221;-79
2023/09/17 08:39:31;;;;;;;7.53;6.95;;;;;;;;;;10300917;28;20230;-79
2023/09/17 08:44:33;;;;;;;9.63;8.77;;;;;;;;;;10299954;28;20227;-78
2023/09/17 08:49:34;;;;;;;9.18;8.38;;;;;;;;;;10304068;28;20209;-79
2023/09/17 08:54:38;;;;;;;10.10;9.13;;;;;;;;;;10303903;28;20315;-79
2023/09/17 08:59:42;;;;;;;10.52;9.23;;;;;;;;;;10306691;28;20225;-79
2023/09/17 09:04:47;;;;;;;9.45;8.45;;;;;;;;;;10295704;28;20228;-80
2023/09/17 09:09:49;;;;;;;9.02;8.23;;;;;;;;;;10290023;28;20250;-78
2023/09/17 09:14:51;;;;;;;8.80;8.13;;;;;;;;;;10293859;28;20205;-79
2023/09/17 09:19:52;;;;;;;9.45;8.60;;;;;;;;;;10293863;28;20820;-79
2023/09/17 09:24:53;;;;;;;9.15;8.35;;;;;;;;;;10299070;28;20232;-78
2023/09/17 09:29:54;;;;;;;8.23;7.63;;;;;;;;;;10304608;28;20621;-79
2023/09/17 09:34:55;;;;;;;9.15;7.85;;;;;;;;;;10292408;28;20213;-78
2023/09/17 09:39:58;;;;;;;8.73;8.02;;;;;;;;;;10285735;28;20212;-79
2023/09/17 09:45:00;;;;;;;8.80;7.90;;;;;;;;;;10286016;28;20263;-80
2023/09/17 09:50:01;;;;;;;7.50;6.97;;;;;;;;;;10303715;28;20217;-80
2023/09/17 09:55:02;;;;;;;7.28;6.78;;;;;;;;;;10301904;28;20237;-79
2023/09/17 10:00:07;;;;;;;7.93;7.20;;;;;;;;;;10303034;28;20216;-80
2023/09/17 10:05:12;;;;;;;6.57;5.97;;;;;;;;;;10298646;28;20228;-83
2023/09/17 10:10:16;;;;;;;7.22;6.57;;;;;;;;;;10302459;28;20428;-79
2023/09/17 10:15:17;;;;;;;5.22;4.88;;;;;;;;;;10287442;28;20189;-78
2023/09/17 10:20:18;;;;;;;5.40;5.10;;;;;;;;;;10309018;28;20213;-78
2023/09/17 10:25:20;;;;;;;6.05;5.75;;;;;;;;;;10308121;28;20308;-77
2023/09/17 10:30:22;;;;;;;5.05;4.75;;;;;;;;;;10295044;28;20251;-76
2023/09/17 10:35:24;;;;;;;4.65;4.38;;;;;;;;;;10299781;28;20823;-77
2023/09/17 10:40:26;;;;;;;4.10;3.88;;;;;;;;;;10315278;28;20920;-77
2023/09/17 10:45:27;;;;;;;3.83;3.53;;;;;;;;;;10303964;28;20625;-78
2023/09/17 10:50:29;;;;;;;3.15;3.05;;;;;;;;;;10303543;28;20235;-79
2023/09/17 10:55:36;;;;;;;3.13;3.03;;;;;;;;;;10314897;28;20227;-77
2023/09/17 11:00:42;;;;;;;3.88;3.60;;;;;;;;;;10312251;28;20224;-77
2023/09/17 11:05:43;;;;;;;2.47;2.38;;;;;;;;;;10316353;28;20224;-77
2023/09/17 11:10:45;;;;;;;3.10;2.90;;;;;;;;;;10284131;28;20212;-78
2023/09/17 11:15:48;;;;;;;2.65;2.65;;;;;;;;;;10285641;28;20635;-77
2023/09/17 11:20:58;;;;;;;2.63;2.53;;;;;;;;;;10307009;28;20213;-78
2023/09/17 11:25:59;;;;;;;2.50;2.45;;;;;;;;;;10317677;28;20242;-79
2023/09/17 11:31:06;;;;;;;3.40;3.10;;;;;;;;;;10327618;28;24643;-79
2023/09/17 11:36:08;;;;;;;2.00;2.00;;;;;;;;;;10302977;28;20216;-78
2023/09/17 11:41:10;;;;;;;3.95;2.35;;;;;;;;;;10309343;28;20217;-79
2023/09/17 11:46:12;;;;;;;2.05;1.88;;;;;;;;;;10290048;28;20284;-79
2023/09/17 11:51:29;;;;;;;2.08;1.85;;;;;;;;;;10325995;28;20262;-79
2023/09/17 11:56:34;;;;;;;1.92;1.92;;;;;;;;;;10290044;28;20220;-79
2023/09/17 12:01:43;;;;;;;4.13;2.38;;;;;;;;;;10323631;28;20208;-78
2023/09/17 12:06:44;;;;;;;2.08;2.08;;;;;;;;;;10293912;28;20608;-79
2023/09/17 12:11:47;;;;;;;2.28;2.17;;;;;;;;;;10304573;28;20239;-78
2023/09/17 12:16:49;;;;;;;2.50;2.40;;;;;;;;;;10298995;28;20227;-78
2023/09/17 12:21:53;;;;;;;1.90;1.80;;;;;;;;;;10309332;28;20316;-78
2023/09/17 12:32:08;;;;;;;1.77;1.77;;;;;;;;;;10317195;28;20217;-78
2023/09/17 12:37:11;;;;;;;1.98;1.88;;;;;;;;;;10307643;28;20227;-76
2023/09/17 12:42:12;;;;;;;1.63;1.63;;;;;;;;;;10307427;28;20280;-78
2023/09/17 12:47:13;;;;;;;1.70;1.60;;;;;;;;;;10313879;28;20229;-77
2023/09/17 12:52:16;;;;;;;2.13;1.95;;;;;;;;;;10311746;28;20220;-77
2023/09/17 12:57:17;;;;;;;1.52;1.42;;;;;;;;;;10297532;28;20235;-78
2023/09/17 13:02:18;;;;;;;1.85;1.85;;;;;;;;;;10293888;28;20220;-77
2023/09/17 13:07:20;;;;;;;1.40;1.40;;;;;;;;;;10305993;28;20251;-78
2023/09/17 13:12:27;;;;;;;1.77;1.67;;;;;;;;;;10301048;28;20283;-77
2023/09/17 13:17:29;;;;;;;1.52;1.52;;;;;;;;;;10327679;28;20220;-78
2023/09/17 13:22:31;;;;;;;1.60;1.50;;;;;;;;;;10333664;28;20212;-78
2023/09/17 13:27:32;;;;;;;1.60;1.50;;;;;;;;;;10320386;28;20225;-77
2023/09/17 13:32:34;;;;;;;2.20;1.45;;;;;;;;;;10311027;28;20216;-77
2023/09/17 13:37:39;;;;;;;1.63;1.63;;;;;;;;;;10297339;28;20227;-77
2023/09/17 13:42:40;;;;;;;1.65;1.55;;;;;;;;;;10302525;28;20299;-77
2023/09/17 13:47:41;;;;;;;1.52;1.40;;;;;;;;;;10282259;28;20220;-76
2023/09/17 13:52:42;;;;;;;1.30;1.27;;;;;;;;;;10293700;28;20262;-77
2023/09/17 13:57:43;;;;;;;1.48;1.48;;;;;;;;;;10296704;28;20224;-77
2023/09/17 14:02:44;;;;;;;1.40;1.40;;;;;;;;;;10277649;28;20212;-77
2023/09/17 14:07:45;;;;;;;1.15;1.15;;;;;;;;;;10294866;28;20219;-77
2023/09/17 14:12:46;;;;;;;1.58;1.58;;;;;;;;;;10307926;28;20240;-74
2023/09/17 14:17:47;;;;;;;1.17;1.17;;;;;;;;;;10297870;28;20614;-75
2023/09/17 14:22:48;;;;;;;1.50;1.50;;;;;;;;;;10300979;28;20212;-75
2023/09/17 14:27:50;;;;;;;1.80;1.80;;;;;;;;;;10307136;28;20353;-76
2023/09/17 14:32:51;;;;;;;3.30;1.70;;;;;;;;;;10291417;28;20685;-76
2023/09/17 14:37:54;;;;;;;5.57;1.90;;;;;;;;;;10307985;28;20208;-76
2023/09/17 14:42:55;;;;;;;1.67;1.58;;;;;;;;;;10291462;28;20291;-74
2023/09/17 14:47:56;;;;;;;1.38;1.27;;;;;;;;;;10308607;28;20223;-73
2023/09/17 14:52:57;;;;;;;1.52;1.52;;;;;;;;;;10290609;28;20259;-76
2023/09/17 14:57:58;;;;;;;1.40;1.40;;;;;;;;;;10290300;28;20234;-76
2023/09/17 15:02:59;;;;;;;1.63;1.55;;;;;;;;;;10312677;28;20331;-78
2023/09/17 15:08:00;;;;;;;1.60;1.60;;;;;;;;;;10284528;28;20228;-77
2023/09/17 15:13:01;;;;;;;2.00;1.90;;;;;;;;;;10292548;28;20224;-76
2023/09/17 15:18:02;;;;;;;2.95;1.75;;;;;;;;;;10278361;28;20754;-77
2023/09/17 15:23:03;;;;;;;1.88;1.77;;;;;;;;;;10311921;28;20205;-76
2023/09/17 15:28:05;;;;;;;1.77;1.75;;;;;;;;;;10289651;28;20247;-77
2023/09/17 15:33:07;;;;;;;6.80;6.60;;;;;;;;;;10296672;28;20215;-75
2023/09/17 15:38:10;;;;;;;1.95;1.95;;;;;;;;;;10298528;28;20232;-76
2023/09/17 15:43:11;;;;;;;1.73;1.73;;;;;;;;;;10298997;28;20212;-75
2023/09/17 15:48:13;;;;;;;1.83;1.83;;;;;;;;;;10297825;28;20228;-75
2023/09/17 15:53:14;;;;;;;2.85;2.75;;;;;;;;;;10304182;28;20224;-75
2023/09/17 15:58:15;;;;;;;2.35;2.22;;;;;;;;;;10308046;28;20222;-75
2023/09/17 16:03:16;;;;;;;3.00;2.90;;;;;;;;;;10312079;28;20222;-76
2023/09/17 16:08:17;;;;;;;6.85;6.50;;;;;;;;;;10306044;28;20319;-76
2023/09/17 16:13:18;;;;;;;2.25;2.20;;;;;;;;;;10283195;28;20617;-75
2023/09/17 16:18:19;;;;;;;2.10;2.10;;;;;;;;;;10302480;28;20326;-75
2023/09/17 16:23:20;;;;;;;1.80;1.80;;;;;;;;;;10288634;28;20219;-75
2023/09/17 16:28:22;;;;;;;1.63;1.63;;;;;;;;;;10302889;28;20240;-75
2023/09/17 16:33:23;;;;;;;1.90;1.90;;;;;;;;;;10287954;28;20631;-76
2023/09/17 16:38:24;;;;;;;1.98;1.88;;;;;;;;;;10297542;28;20251;-75
2023/09/17 16:43:25;;;;;;;2.30;2.20;;;;;;;;;;10299774;28;20225;-76
2023/09/17 16:48:26;;;;;;;1.92;1.92;;;;;;;;;;10286745;28;20380;-75
2023/09/17 16:53:27;;;;;;;1.80;1.80;;;;;;;;;;10290704;28;20227;-73
2023/09/17 16:58:29;;;;;;;1.80;1.75;;;;;;;;;;10279605;28;20223;-75
2023/09/17 17:03:30;;;;;;;1.80;1.48;;;;;;;;;;10301599;28;20698;-74
2023/09/17 17:08:31;;;;;;;2.05;1.88;;;;;;;;;;10285662;28;20262;-75
2023/09/17 17:13:32;;;;;;;1.73;1.73;;;;;;;;;;10293641;28;20710;-75
2023/09/17 17:18:33;;;;;;;1.58;1.58;;;;;;;;;;10284060;28;20216;-73
2023/09/17 17:23:34;;;;;;;1.90;1.90;;;;;;;;;;10280736;28;20698;-74
2023/09/17 17:28:35;;;;;;;1.95;1.95;;;;;;;;;;10283272;28;20228;-75
2023/09/17 17:33:36;;;;;;;1.83;1.83;;;;;;;;;;10282430;28;20221;-75
2023/09/17 17:38:37;;;;;;;1.80;1.80;;;;;;;;;;10295835;28;20627;-75
2023/09/17 17:43:38;;;;;;;2.10;1.90;;;;;;;;;;10299270;28;20217;-75
2023/09/17 17:48:40;;;;;;;1.85;1.85;;;;;;;;;;10300150;28;20950;-75
2023/09/17 17:53:41;;;;;;;2.25;2.15;;;;;;;;;;10297806;28;20213;-75
2023/09/17 17:58:42;;;;;;;2.20;2.20;;;;;;;;;;10277099;28;20446;-75
2023/09/17 18:03:43;;;;;;;5.70;2.50;;;;;;;;;;10302641;28;20650;-74
2023/09/17 18:08:44;;;;;;;2.60;2.55;;;;;;;;;;10259479;28;20244;-74
2023/09/17 18:13:45;;;;;;;2.40;2.30;;;;;;;;;;10296168;28;20690;-74
2023/09/17 18:18:46;;;;;;;2.70;2.60;;;;;;;;;;10287199;28;20231;-75
2023/09/17 18:23:47;;;;;;;2.08;2.08;;;;;;;;;;10288987;28;20712;-73
2023/09/17 18:28:48;;;;;;;2.15;2.05;;;;;;;;;;10294775;28;20554;-74
2023/09/17 18:33:49;;;;;;;2.45;2.35;;;;;;;;;;10287777;28;20244;-75
2023/09/17 18:38:50;;;;;;;2.40;2.40;;;;;;;;;;10292027;28;20223;-75
2023/09/17 18:43:51;;;;;;;2.65;2.60;;;;;;;;;;10301950;28;20224;-75
2023/09/17 18:48:52;;;;;;;2.30;2.20;;;;;;;;;;10276482;28;20220;-75
2023/09/17 18:53:54;;;;;;;2.53;2.33;;;;;;;;;;10289234;28;20631;-75
2023/09/17 18:58:55;;;;;;;2.72;2.63;;;;;;;;;;10275255;28;21046;-74
2023/09/17 19:03:56;;;;;;;2.95;2.85;;;;;;;;;;10270671;28;20217;-76
2023/09/17 19:08:57;;;;;;;2.60;2.50;;;;;;;;;;10277459;28;20231;-75
2023/09/17 19:13:58;;;;;;;3.10;3.00;;;;;;;;;;10286137;28;20308;-75
2023/09/17 19:18:59;;;;;;;3.03;2.92;;;;;;;;;;10259484;28;20218;-75
2023/09/17 19:24:00;;;;;;;3.20;3.10;;;;;;;;;;10277924;28;20303;-75
2023/09/17 19:29:03;;;;;;;2.42;2.42;;;;;;;;;;10297664;28;20315;-73
2023/09/17 19:34:04;;;;;;;3.00;2.90;;;;;;;;;;10308558;28;20209;-76
2023/09/17 19:39:05;;;;;;;3.22;3.15;;;;;;;;;;10282113;28;20267;-75
2023/09/17 19:44:07;;;;;;;3.28;2.90;;;;;;;;;;10285170;28;20216;-76
2023/09/17 19:49:08;;;;;;;2.60;2.53;;;;;;;;;;10267643;28;20316;-74
2023/09/17 19:54:09;;;;;;;3.15;3.05;;;;;;;;;;10309896;28;20247;-75
2023/09/17 19:59:10;;;;;;;3.67;3.47;;;;;;;;;;10300742;28;20213;-74
2023/09/17 20:04:12;;;;;;;7.00;6.32;;;;;;;;;;10283659;28;20221;-77
2023/09/17 20:09:13;;;;;;;5.38;5.05;;;;;;;;;;10300785;28;20217;-77
2023/09/17 20:14:14;;;;;;;4.72;4.50;;;;;;;;;;10303980;28;20747;-77
2023/09/17 20:19:16;;;;;;;4.53;4.32;;;;;;;;;;10311398;28;20213;-77
2023/09/17 20:24:17;;;;;;;4.03;3.83;;;;;;;;;;10309422;28;20718;-77
2023/09/17 20:29:18;;;;;;;3.63;3.38;;;;;;;;;;10307671;28;20265;-77
2023/09/17 20:34:19;;;;;;;3.50;3.35;;;;;;;;;;10299887;28;20363;-77
2023/09/17 20:39:20;;;;;;;3.15;2.97;;;;;;;;;;10311770;28;20217;-77
2023/09/17 20:44:24;;;;;;;3.30;3.20;;;;;;;;;;10295778;28;20213;-77
2023/09/17 20:49:25;;;;;;;3.42;2.95;;;;;;;;;;10284323;28;20224;-77
2023/09/17 20:54:26;;;;;;;3.60;3.38;;;;;;;;;;10308563;28;20697;-77
2023/09/17 20:59:27;;;;;;;3.67;3.47;;;;;;;;;;10301001;28;20216;-76
2023/09/17 21:04:30;;;;;;;2.85;2.83;;;;;;;;;;10309895;28;20695;-76
2023/09/17 21:09:33;;;;;;;3.08;2.92;;;;;;;;;;10326429;28;20223;-77
2023/09/17 21:14:34;;;;;;;3.60;3.50;;;;;;;;;;10314332;28;20236;-77
2023/09/17 21:19:35;;;;;;;4.13;3.92;;;;;;;;;;10291821;28;20219;-77
2023/09/17 21:24:36;;;;;;;3.53;3.42;;;;;;;;;;10319841;28;20201;-75
2023/09/17 21:29:37;;;;;;;3.08;2.97;;;;;;;;;;10316623;28;20223;-74
2023/09/17 21:34:38;;;;;;;2.78;2.78;;;;;;;;;;10285772;28;20549;-75
2023/09/17 21:39:39;;;;;;;3.35;3.25;;;;;;;;;;10299744;28;20239;-75
2023/09/17 21:44:40;;;;;;;2.95;2.75;;;;;;;;;;10311602;28;20413;-75
2023/09/17 21:49:42;;;;;;;3.50;3.40;;;;;;;;;;10317137;28;20213;-76
2023/09/17 21:54:43;;;;;;;3.45;3.35;;;;;;;;;;10309849;28;20303;-74
2023/09/17 21:59:45;;;;;;;3.38;3.28;;;;;;;;;;10327437;28;20231;-75
2023/09/17 22:04:46;;;;;;;3.80;3.60;;;;;;;;;;10317048;28;20698;-75
2023/09/17 22:09:47;;;;;;;3.72;3.63;;;;;;;;;;10302933;28;20337;-75
2023/09/17 22:14:48;;;;;;;3.85;3.72;;;;;;;;;;10310588;28;20248;-75
2023/09/17 22:19:49;;;;;;;3.42;3.33;;;;;;;;;;10304261;28;20235;-75
2023/09/17 22:24:50;;;;;;;3.08;2.88;;;;;;;;;;10301277;28;20376;-75
2023/09/17 22:29:51;;;;;;;3.70;3.60;;;;;;;;;;10285840;28;20212;-75
2023/09/17 22:34:55;;;;;;;3.40;3.30;;;;;;;;;;10323098;28;20227;-76
2023/09/17 22:39:56;;;;;;;3.45;3.25;;;;;;;;;;10299916;28;20225;-74
2023/09/17 22:44:57;;;;;;;3.42;3.33;;;;;;;;;;10312700;28;20274;-75
2023/09/17 22:49:58;;;;;;;3.92;3.72;;;;;;;;;;10295323;28;20756;-76
2023/09/17 22:54:59;;;;;;;3.55;3.45;;;;;;;;;;10311507;28;20287;-74
2023/09/17 23:00:00;;;;;;;3.60;3.50;;;;;;;;;;10315502;28;20251;-74
2023/09/17 23:05:01;;;;;;;2.80;2.80;;;;;;;;;;10296892;28;20575;-75
2023/09/17 23:10:02;;;;;;;3.67;3.58;;;;;;;;;;10310370;28;20218;-75
2023/09/17 23:15:04;;;;;;;3.72;3.53;;;;;;;;;;10291348;28;20212;-74
2023/09/17 23:20:08;;;;;;;3.45;3.35;;;;;;;;;;10314053;28;20208;-75
2023/09/17 23:25:09;;;;;;;4.10;3.22;;;;;;;;;;10317957;28;20235;-74
2023/09/17 23:30:12;;;;;;;3.88;3.67;;;;;;;;;;10299308;28;20262;-74
2023/09/17 23:35:13;;;;;;;3.85;3.63;;;;;;;;;;10331340;28;20260;-75
2023/09/17 23:40:14;;;;;;;3.10;3.00;;;;;;;;;;10298509;28;20232;-75
2023/09/17 23:45:17;;;;;;;3.55;3.45;;;;;;;;;;10325318;28;20208;-75
2023/09/17 23:50:19;;;;;;;3.00;2.90;;;;;;;;;;10317152;28;20204;-75
2023/09/17 23:55:20;;;;;;;3.50;3.30;;;;;;;;;;10292899;28;20199;-75
